createdAt,value
2023-01-20T00:02:47.732Z,1000.11
2023-01-20T00:05:47.678Z,1000.14
2023-01-20T00:08:47.685Z,1000.2
2023-01-20T00:11:47.690Z,1000.18
2023-01-20T00:14:47.684Z,1000.27
2023-01-20T00:17:47.687Z,1000.28
2023-01-20T00:20:47.688Z,1000.33
2023-01-20T00:23:47.717Z,1000.37
2023-01-20T00:26:47.685Z,1000.42
2023-01-20T00:29:47.683Z,1000.45
2023-01-20T00:32:47.696Z,1000.5
2023-01-20T00:35:47.685Z,1000.47
2023-01-20T00:38:47.710Z,1000.5
2023-01-20T00:41:47.686Z,1000.55
2023-01-20T00:44:47.693Z,1000.55
2023-01-20T00:47:47.692Z,1000.58
2023-01-20T00:50:47.686Z,1000.63
2023-01-20T00:53:47.682Z,1000.7
2023-01-20T00:56:47.685Z,1000.69
2023-01-20T00:59:47.685Z,1000.74
2023-01-20T01:02:47.695Z,1000.75
2023-01-20T01:05:47.703Z,1000.75
2023-01-20T01:08:47.695Z,1000.82
2023-01-20T01:11:47.683Z,1000.82
2023-01-20T01:14:47.693Z,1000.82
2023-01-20T01:17:47.689Z,1000.83
2023-01-20T01:20:47.700Z,1000.84
2023-01-20T01:23:47.679Z,1000.83
2023-01-20T01:26:47.693Z,1000.9
2023-01-20T01:29:47.691Z,1000.99
2023-01-20T01:32:47.687Z,1001.04
2023-01-20T01:35:47.693Z,1001.07
2023-01-20T01:38:57.518Z,1001.1
2023-01-20T01:41:47.690Z,1001.13
2023-01-20T01:44:47.681Z,1001.16
2023-01-20T01:47:47.680Z,1001.15
2023-01-20T01:50:47.701Z,1001.07
2023-01-20T01:53:47.685Z,1001.08
2023-01-20T01:56:47.689Z,1001.1
2023-01-20T01:59:47.684Z,1001.14
2023-01-20T02:02:47.686Z,1001.15
2023-01-20T02:05:47.685Z,1001.2
2023-01-20T02:08:47.683Z,1001.21
2023-01-20T02:11:47.689Z,1001.26
2023-01-20T02:14:47.688Z,1001.32
2023-01-20T02:17:47.685Z,1001.36
2023-01-20T02:20:47.688Z,1001.4
2023-01-20T02:23:47.686Z,1001.43
2023-01-20T02:26:47.688Z,1001.5
2023-01-20T02:29:47.685Z,1001.54
2023-01-20T02:32:47.697Z,1001.57
2023-01-20T02:35:47.694Z,1001.61
2023-01-20T02:38:47.687Z,1001.63
2023-01-20T02:41:47.679Z,1001.67
2023-01-20T02:44:47.693Z,1001.68
2023-01-20T02:47:50.689Z,1001.74
2023-01-20T02:50:47.681Z,1001.76
2023-01-20T02:53:47.706Z,1001.79
2023-01-20T02:56:47.693Z,1001.78
2023-01-20T02:59:47.697Z,1001.83
2023-01-20T03:02:47.691Z,1001.85
2023-01-20T03:05:47.709Z,1001.83
2023-01-20T03:08:47.693Z,1001.91
2023-01-20T03:11:47.700Z,1001.9
2023-01-20T03:14:47.690Z,1001.93
2023-01-20T03:17:47.724Z,1002.01
2023-01-20T03:20:47.712Z,1002.04
2023-01-20T03:23:47.719Z,1002.08
2023-01-20T03:26:47.725Z,1002.13
2023-01-20T03:29:47.729Z,1002.13
2023-01-20T03:32:47.742Z,1002.22
2023-01-20T03:35:47.718Z,1002.22
2023-01-20T03:38:47.726Z,1002.26
2023-01-20T03:41:47.718Z,1002.26
2023-01-20T03:44:47.726Z,1002.31
2023-01-20T03:47:47.736Z,1002.31
2023-01-20T03:50:47.762Z,1002.29
2023-01-20T03:53:47.716Z,1002.32
2023-01-20T03:56:47.729Z,1002.31
2023-01-20T03:59:47.724Z,1002.31
2023-01-20T04:02:47.720Z,1002.3
2023-01-20T04:05:47.746Z,1002.37
2023-01-20T04:08:47.724Z,1002.47
2023-01-20T04:11:47.723Z,1002.5
2023-01-20T04:14:47.724Z,1002.55
2023-01-20T04:17:47.738Z,1002.63
2023-01-20T04:20:47.727Z,1002.64
2023-01-20T04:23:47.726Z,1002.56
2023-01-20T04:26:47.725Z,1002.61
2023-01-20T04:29:47.737Z,1002.58
2023-01-20T04:32:47.739Z,1002.67
2023-01-20T04:35:47.727Z,1002.73
2023-01-20T04:38:47.729Z,1002.67
2023-01-20T04:41:47.731Z,1002.64
2023-01-20T04:44:47.763Z,1002.59
2023-01-20T04:47:47.731Z,1002.56
2023-01-20T04:50:47.725Z,1002.6
2023-01-20T04:53:47.730Z,1002.63
2023-01-20T04:56:47.734Z,1002.68
2023-01-20T04:59:47.735Z,1002.66
2023-01-20T05:02:47.807Z,1002.74
2023-01-20T05:05:47.738Z,1002.79
2023-01-20T05:08:47.725Z,1002.84
2023-01-20T05:11:47.737Z,1002.81
2023-01-20T05:14:47.727Z,1002.86
2023-01-20T05:17:47.733Z,1002.93
2023-01-20T05:20:47.736Z,1002.89
2023-01-20T05:23:47.724Z,1003
2023-01-20T05:26:47.731Z,1003.04
2023-01-20T05:29:47.727Z,1003.06
2023-01-20T05:32:47.731Z,1003.11
2023-01-20T05:35:47.739Z,1003.12
2023-01-20T05:38:47.739Z,1003.12
2023-01-20T05:41:47.757Z,1003.11
2023-01-20T05:44:47.730Z,1003.18
2023-01-20T05:47:47.734Z,1003.19
2023-01-20T05:50:47.729Z,1003.23
2023-01-20T05:53:47.735Z,1003.25
2023-01-20T05:56:47.754Z,1003.29
2023-01-20T05:59:47.868Z,1003.3
2023-01-20T06:02:47.814Z,1003.32
2023-01-20T06:05:47.742Z,1003.36
2023-01-20T06:08:47.763Z,1003.38
2023-01-20T06:11:47.760Z,1003.44
2023-01-20T06:14:47.743Z,1003.47
2023-01-20T06:17:47.749Z,1003.49
2023-01-20T06:20:47.744Z,1003.54
2023-01-20T06:23:47.749Z,1003.62
2023-01-20T06:26:47.741Z,1003.71
2023-01-20T06:29:47.761Z,1003.74
2023-01-20T06:32:47.735Z,1003.84
2023-01-20T06:35:47.736Z,1003.88
2023-01-20T06:38:47.734Z,1003.89
2023-01-20T06:41:47.744Z,1003.93
2023-01-20T06:44:47.744Z,1003.97
2023-01-20T06:47:47.745Z,1004
2023-01-20T06:50:47.738Z,1004.04
2023-01-20T06:53:47.744Z,1004.02
2023-01-20T06:56:47.732Z,1004.05
2023-01-20T06:59:47.749Z,1004.12
2023-01-20T07:02:47.809Z,1004.13
2023-01-20T07:05:47.747Z,1004.21
2023-01-20T07:08:47.756Z,1004.23
2023-01-20T07:11:47.734Z,1004.22
2023-01-20T07:14:47.741Z,1004.21
2023-01-20T07:17:47.734Z,1004.24
2023-01-20T07:20:47.736Z,1004.29
2023-01-20T07:23:47.732Z,1004.37
2023-01-20T07:26:47.742Z,1004.36
2023-01-20T07:29:47.744Z,1004.37
2023-01-20T07:32:47.743Z,1004.42
2023-01-20T07:35:47.747Z,1004.44
2023-01-20T07:38:47.759Z,1004.45
2023-01-20T07:41:47.759Z,1004.52
2023-01-20T07:44:47.748Z,1004.58
2023-01-20T07:47:47.744Z,1004.62
2023-01-20T07:50:47.734Z,1004.66
2023-01-20T07:53:47.782Z,1004.66
2023-01-20T07:56:47.742Z,1004.72
2023-01-20T07:59:47.740Z,1004.76
2023-01-20T08:02:47.741Z,1004.74
2023-01-20T08:05:47.749Z,1004.76
2023-01-20T08:08:47.750Z,1004.82
2023-01-20T08:11:47.748Z,1004.88
2023-01-20T08:14:47.737Z,1004.86
2023-01-20T08:17:47.747Z,1004.85
2023-01-20T08:20:47.744Z,1004.89
2023-01-20T08:23:47.756Z,1004.87
2023-01-20T08:26:47.738Z,1004.88
2023-01-20T08:29:47.738Z,1004.93
2023-01-20T08:32:47.745Z,1005.02
2023-01-20T08:35:47.748Z,1004.99
2023-01-20T08:38:47.769Z,1005.04
2023-01-20T08:41:47.741Z,1005.08
2023-01-20T08:44:47.741Z,1005.11
2023-01-20T08:47:47.738Z,1005.11
2023-01-20T08:50:47.745Z,1005.18
2023-01-20T08:53:47.744Z,1005.15
2023-01-20T08:56:47.733Z,1005.18
2023-01-20T08:59:47.740Z,1005.18
2023-01-20T09:02:47.755Z,1005.2
2023-01-20T09:05:47.738Z,1005.24
2023-01-20T09:08:47.743Z,1005.33
2023-01-20T09:11:47.788Z,1005.31
2023-01-20T09:14:47.760Z,1005.32
2023-01-20T09:17:47.741Z,1005.35
2023-01-20T09:20:47.740Z,1005.37
2023-01-20T09:23:47.744Z,1005.49
2023-01-20T09:26:47.744Z,1005.53
2023-01-20T09:29:47.741Z,1005.57
2023-01-20T09:32:47.773Z,1005.6
2023-01-20T09:35:47.744Z,1005.62
2023-01-20T09:38:47.737Z,1005.69
2023-01-20T09:41:47.756Z,1005.76
2023-01-20T09:44:47.744Z,1005.76
2023-01-20T09:47:47.743Z,1005.73
2023-01-20T09:50:47.737Z,1005.76
2023-01-20T09:53:47.739Z,1005.75
2023-01-20T09:56:47.745Z,1005.78
2023-01-20T09:59:47.753Z,1005.79
2023-01-20T10:02:47.740Z,1005.77
2023-01-20T10:05:47.754Z,1005.78
2023-01-20T10:09:03.874Z,1005.75
2023-01-20T10:11:47.765Z,1005.72
2023-01-20T10:14:47.765Z,1005.74
2023-01-20T10:17:47.759Z,1005.75
2023-01-20T10:20:47.744Z,1005.76
2023-01-20T10:23:47.757Z,1005.83
2023-01-20T10:26:47.752Z,1005.79
2023-01-20T10:29:47.757Z,1005.78
2023-01-20T10:32:47.752Z,1005.83
2023-01-20T10:35:47.756Z,1005.82
2023-01-20T10:38:47.763Z,1005.86
2023-01-20T10:41:47.758Z,1005.82
2023-01-20T10:44:47.752Z,1005.81
2023-01-20T10:47:47.760Z,1005.82
2023-01-20T10:50:47.757Z,1005.83
2023-01-20T10:53:47.753Z,1005.8
2023-01-20T10:56:47.755Z,1005.81
2023-01-20T10:59:47.762Z,1005.83
2023-01-20T11:02:47.793Z,1005.84
2023-01-20T11:05:47.745Z,1005.83
2023-01-20T11:08:47.770Z,1005.85
2023-01-20T11:11:47.776Z,1005.86
2023-01-20T11:14:47.778Z,1005.83
2023-01-20T11:17:47.758Z,1005.85
2023-01-20T11:20:47.766Z,1005.84
2023-01-20T11:23:47.771Z,1005.8
2023-01-20T11:26:47.758Z,1005.76
2023-01-20T11:29:47.758Z,1005.79
2023-01-20T11:32:47.768Z,1005.84
2023-01-20T11:35:47.804Z,1005.87
2023-01-20T11:38:47.763Z,1005.9
2023-01-20T11:41:47.762Z,1005.9
2023-01-20T11:44:47.764Z,1005.91
2023-01-20T11:47:47.774Z,1005.94
2023-01-20T11:50:47.769Z,1005.93
2023-01-20T11:53:47.765Z,1005.92
2023-01-20T11:56:47.770Z,1005.94
2023-01-20T11:59:47.783Z,1005.93
2023-01-20T12:02:47.763Z,1005.91
2023-01-20T12:05:47.772Z,1005.95
2023-01-20T12:08:47.765Z,1005.97
2023-01-20T12:11:47.848Z,1005.98
2023-01-20T12:14:47.793Z,1005.97
2023-01-20T12:17:47.793Z,1005.98
2023-01-20T12:20:54.759Z,1006
2023-01-20T12:23:47.822Z,1005.95
2023-01-20T12:26:47.802Z,1006.01
2023-01-20T12:29:47.844Z,1005.96
2023-01-20T12:32:47.795Z,1006.01
2023-01-20T12:35:47.799Z,1005.97
2023-01-20T12:38:47.809Z,1005.97
2023-01-20T12:41:47.802Z,1005.98
2023-01-20T12:44:47.824Z,1006.01
2023-01-20T12:47:47.791Z,1005.96
2023-01-20T12:50:47.777Z,1005.98
2023-01-20T12:53:47.790Z,1005.99
2023-01-20T12:56:47.789Z,1006.01
2023-01-20T12:59:47.796Z,1005.99
2023-01-20T13:02:47.844Z,1005.99
2023-01-20T13:05:47.793Z,1006.04
2023-01-20T13:08:47.793Z,1006.1
2023-01-20T13:11:47.785Z,1006.14
2023-01-20T13:14:47.787Z,1006.16
2023-01-20T13:17:47.791Z,1006.17
2023-01-20T13:20:47.788Z,1006.18
2023-01-20T13:23:47.796Z,1006.2
2023-01-20T13:26:47.780Z,1006.14
2023-01-20T13:29:47.780Z,1006.15
2023-01-20T13:32:47.792Z,1006.18
2023-01-20T13:35:47.799Z,1006.15
2023-01-20T13:38:47.795Z,1006.15
2023-01-20T13:41:47.795Z,1006.11
2023-01-20T13:44:47.778Z,1006.12
2023-01-20T13:47:47.797Z,1006.11
2023-01-20T13:50:47.868Z,1006.15
2023-01-20T13:53:47.808Z,1006.11
2023-01-20T13:56:47.793Z,1006.17
2023-01-20T13:59:47.793Z,1006.2
2023-01-20T14:02:47.853Z,1006.21
2023-01-20T14:05:47.797Z,1006.18
2023-01-20T14:08:47.802Z,1006.22
2023-01-20T14:11:47.785Z,1006.24
2023-01-20T14:14:47.786Z,1006.26
2023-01-20T14:17:47.798Z,1006.27
2023-01-20T14:20:47.799Z,1006.28
2023-01-20T14:23:47.788Z,1006.31
2023-01-20T14:26:47.794Z,1006.3
2023-01-20T14:29:47.815Z,1006.31
2023-01-20T14:32:47.796Z,1006.29
2023-01-20T14:35:47.804Z,1006.33
2023-01-20T14:38:56.774Z,1006.39
2023-01-20T14:41:47.802Z,1006.39
2023-01-20T14:44:47.788Z,1006.41
2023-01-20T14:47:47.962Z,1006.45
2023-01-20T14:50:47.809Z,1006.49
2023-01-20T14:53:47.812Z,1006.52
2023-01-20T14:56:47.811Z,1006.51
2023-01-20T14:59:47.812Z,1006.54
2023-01-20T15:02:52.709Z,1006.56
2023-01-20T15:05:47.798Z,1006.62
2023-01-20T15:09:00.746Z,1006.58
2023-01-20T15:11:47.813Z,1006.62
2023-01-20T15:14:47.804Z,1006.66
2023-01-20T15:17:47.808Z,1006.68
2023-01-20T15:20:47.824Z,1006.68
2023-01-20T15:23:47.815Z,1006.68
2023-01-20T15:26:47.811Z,1006.7
2023-01-20T15:29:47.816Z,1006.73
2023-01-20T15:32:47.838Z,1006.78
2023-01-20T15:35:47.807Z,1006.76
2023-01-20T15:38:47.830Z,1006.8
2023-01-20T15:41:47.823Z,1006.85
2023-01-20T15:44:47.815Z,1006.88
2023-01-20T15:47:47.830Z,1006.88
2023-01-20T15:50:47.861Z,1006.89
2023-01-20T15:53:47.823Z,1006.94
2023-01-20T15:56:47.822Z,1006.98
2023-01-20T15:59:47.823Z,1007
2023-01-20T16:02:47.969Z,1007.02
2023-01-20T16:05:47.822Z,1007.06
2023-01-20T16:08:47.817Z,1007.07
2023-01-20T16:11:47.828Z,1007.09
2023-01-20T16:14:47.822Z,1007.05
2023-01-20T16:17:47.828Z,1007.1
2023-01-20T16:20:47.822Z,1007.13
2023-01-20T16:23:47.820Z,1007.14
2023-01-20T16:26:47.817Z,1007.19
2023-01-20T16:29:47.821Z,1007.22
2023-01-20T16:32:47.819Z,1007.29
2023-01-20T16:35:47.818Z,1007.25
2023-01-20T16:38:47.829Z,1007.28
2023-01-20T16:41:47.842Z,1007.26
2023-01-20T16:44:47.844Z,1007.31
2023-01-20T16:47:47.853Z,1007.35
2023-01-20T16:50:47.864Z,1007.38
2023-01-20T16:53:47.860Z,1007.43
2023-01-20T16:56:47.851Z,1007.45
2023-01-20T16:59:47.845Z,1007.46
2023-01-20T17:02:47.855Z,1007.46
2023-01-20T17:05:47.847Z,1007.49
2023-01-20T17:08:47.856Z,1007.54
2023-01-20T17:11:47.846Z,1007.54
2023-01-20T17:14:47.844Z,1007.57
2023-01-20T17:17:47.842Z,1007.64
2023-01-20T17:20:47.842Z,1007.66
2023-01-20T17:23:47.843Z,1007.7
2023-01-20T17:26:47.858Z,1007.72
2023-01-20T17:29:47.849Z,1007.75
2023-01-20T17:32:47.847Z,1007.83
2023-01-20T17:35:47.854Z,1007.82
2023-01-20T17:38:47.861Z,1007.8
2023-01-20T17:41:47.843Z,1007.84
2023-01-20T17:44:47.858Z,1007.85
2023-01-20T17:47:47.937Z,1007.86
2023-01-20T17:50:47.862Z,1007.89
2023-01-20T17:53:47.851Z,1007.93
2023-01-20T17:56:47.850Z,1007.94
2023-01-20T17:59:47.855Z,1007.94
2023-01-20T18:02:47.863Z,1007.98
2023-01-20T18:05:47.845Z,1008.04
2023-01-20T18:08:47.843Z,1008.1
2023-01-20T18:11:47.854Z,1008.11
2023-01-20T18:14:47.855Z,1008.14
2023-01-20T18:17:47.863Z,1008.18
2023-01-20T18:20:47.852Z,1008.24
2023-01-20T18:23:47.867Z,1008.31
2023-01-20T18:26:47.849Z,1008.36
2023-01-20T18:29:47.848Z,1008.38
2023-01-20T18:32:47.857Z,1008.36
2023-01-20T18:35:47.855Z,1008.36
2023-01-20T18:38:47.859Z,1008.4
2023-01-20T18:41:47.873Z,1008.4
2023-01-20T18:44:47.858Z,1008.41
2023-01-20T18:47:47.862Z,1008.43
2023-01-20T18:50:47.878Z,1008.43
2023-01-20T18:53:47.850Z,1008.47
2023-01-20T18:56:47.874Z,1008.47
2023-01-20T18:59:47.855Z,1008.54
2023-01-20T19:02:47.922Z,1008.6
2023-01-20T19:05:47.857Z,1008.61
2023-01-20T19:08:47.867Z,1008.64
2023-01-20T19:11:47.857Z,1008.65
2023-01-20T19:14:47.856Z,1008.69
2023-01-20T19:17:47.869Z,1008.68
2023-01-20T19:20:47.859Z,1008.7
2023-01-20T19:23:47.852Z,1008.74
2023-01-20T19:26:47.875Z,1008.74
2023-01-20T19:29:47.859Z,1008.74
2023-01-20T19:32:47.854Z,1008.76
2023-01-20T19:35:47.859Z,1008.77
2023-01-20T19:38:47.869Z,1008.8
2023-01-20T19:41:47.858Z,1008.88
2023-01-20T19:44:47.855Z,1008.92
2023-01-20T19:47:47.858Z,1008.96
2023-01-20T19:50:47.889Z,1009.02
2023-01-20T19:53:47.863Z,1009.01
2023-01-20T19:56:47.872Z,1009.05
2023-01-20T19:59:47.853Z,1009.02
2023-01-20T20:02:47.876Z,1009.05
2023-01-20T20:05:47.863Z,1009.08
2023-01-20T20:08:47.872Z,1009.08
2023-01-20T20:11:47.899Z,1009.12
2023-01-20T20:14:47.862Z,1009.18
2023-01-20T20:17:47.858Z,1009.18
2023-01-20T20:20:47.856Z,1009.19
2023-01-20T20:23:47.868Z,1009.22
2023-01-20T20:26:47.876Z,1009.27
2023-01-20T20:29:47.858Z,1009.25
2023-01-20T20:32:47.858Z,1009.26
2023-01-20T20:35:47.866Z,1009.3
2023-01-20T20:38:50.290Z,1009.34
2023-01-20T20:41:47.858Z,1009.35
2023-01-20T20:44:47.860Z,1009.37
2023-01-20T20:47:47.889Z,1009.39
2023-01-20T20:50:47.920Z,1009.44
2023-01-20T20:53:47.861Z,1009.49
2023-01-20T20:56:47.876Z,1009.53
2023-01-20T20:59:58.757Z,1009.54
2023-01-20T21:02:47.925Z,1009.57
2023-01-20T21:05:47.868Z,1009.57
2023-01-20T21:08:47.864Z,1009.56
2023-01-20T21:11:47.869Z,1009.62
2023-01-20T21:14:47.859Z,1009.61
2023-01-20T21:17:47.872Z,1009.62
2023-01-20T21:20:47.875Z,1009.61
2023-01-20T21:23:47.867Z,1009.61
2023-01-20T21:26:47.868Z,1009.68
2023-01-20T21:29:47.881Z,1009.7
2023-01-20T21:32:47.883Z,1009.71
2023-01-20T21:35:47.868Z,1009.75
2023-01-20T21:38:47.869Z,1009.77
2023-01-20T21:41:47.869Z,1009.79
2023-01-20T21:44:47.871Z,1009.79
2023-01-20T21:47:47.869Z,1009.8
2023-01-20T21:50:47.931Z,1009.85
2023-01-20T21:53:47.878Z,1009.83
2023-01-20T21:56:47.868Z,1009.87
2023-01-20T21:59:47.880Z,1009.92
2023-01-20T22:02:47.870Z,1009.99
2023-01-20T22:05:47.888Z,1010.05
2023-01-20T22:08:47.866Z,1010.1
2023-01-20T22:11:47.896Z,1010.17
2023-01-20T22:14:47.868Z,1010.2
2023-01-20T22:17:47.869Z,1010.22
2023-01-20T22:20:47.885Z,1010.27
2023-01-20T22:23:47.884Z,1010.33
2023-01-20T22:26:47.895Z,1010.37
2023-01-20T22:29:47.869Z,1010.45
2023-01-20T22:32:47.888Z,1010.45
2023-01-20T22:35:47.866Z,1010.48
2023-01-20T22:38:47.870Z,1010.47
2023-01-20T22:41:47.874Z,1010.51
2023-01-20T22:44:47.864Z,1010.57
2023-01-20T22:47:47.884Z,1010.66
2023-01-20T22:50:47.877Z,1010.67
2023-01-20T22:53:47.892Z,1010.7
2023-01-20T22:56:47.880Z,1010.75
2023-01-20T22:59:47.877Z,1010.77
2023-01-20T23:02:47.883Z,1010.84
2023-01-20T23:05:47.881Z,1010.82
2023-01-20T23:08:47.880Z,1010.85
2023-01-20T23:11:47.868Z,1010.87
2023-01-20T23:14:47.890Z,1010.89
2023-01-20T23:17:47.884Z,1010.95
2023-01-20T23:20:47.936Z,1010.96
2023-01-20T23:23:47.886Z,1011.01
2023-01-20T23:26:47.885Z,1011.05
2023-01-20T23:29:47.884Z,1011.1
2023-01-20T23:32:47.887Z,1011.09
2023-01-20T23:35:47.887Z,1011.1
2023-01-20T23:38:47.901Z,1011.14
2023-01-20T23:41:47.891Z,1011.2
2023-01-20T23:44:47.892Z,1011.24
2023-01-20T23:47:47.888Z,1011.31
2023-01-20T23:50:47.892Z,1011.33
2023-01-20T23:53:47.888Z,1011.34
2023-01-20T23:56:47.898Z,1011.39
2023-01-20T23:59:47.877Z,1011.43
